Time;durP1;ratioP1;P1;durP2;ratioP2;P2;SDS_P1;SDS_P2;PMS_P1;PMS_P2;Temp;Humidity;BMP_temperature;BMP_pressure;BME280_temperature;BME280_humidity;BME280_pressure;Samples;Min_cycle;Max_cycle;Signal;HPM_P1;HPM_P2
2021/07/18 00:01:13;;;;;;;8.80;7.90;;;;;;;28.00;51.20;99082.59;5042220;28;20232;-94
2021/07/18 00:03:40;;;;;;;9.03;8.20;;;;;;;28.01;51.17;99082.25;5042042;28;20224;-94
2021/07/18 00:06:07;;;;;;;8.67;7.80;;;;;;;28.10;51.45;99089.56;5074817;28;20310;-94
2021/07/18 00:08:34;;;;;;;9.40;8.50;;;;;;;28.19;51.10;99079.25;5075126;28;20378;-93
2021/07/18 00:11:01;;;;;;;9.70;8.67;;;;;;;28.14;51.28;99093.25;5041941;28;20240;-95
2021/07/18 00:13:27;;;;;;;9.47;8.50;;;;;;;28.11;51.66;99093.97;5041777;28;20311;-94
2021/07/18 00:15:54;;;;;;;9.20;8.30;;;;;;;28.09;51.56;99088.75;5058401;28;20313;-92
2021/07/18 00:18:21;;;;;;;9.90;9.00;;;;;;;28.09;51.12;99087.97;5074795;28;20579;-94
2021/07/18 00:20:50;;;;;;;10.43;9.43;;;;;;;28.05;52.07;99093.34;5041716;28;20246;-94
2021/07/18 00:23:17;;;;;;;10.00;8.77;;;;;;;28.34;51.52;99089.53;5042352;28;20223;-93
2021/07/18 00:25:44;;;;;;;9.13;8.33;;;;;;;28.31;51.30;99095.75;5058076;28;20239;-93
2021/07/18 00:28:11;;;;;;;10.77;9.13;;;;;;;28.34;51.35;99084.81;5058262;28;20651;-93
2021/07/18 00:30:38;;;;;;;9.77;8.53;;;;;;;28.37;51.15;99099.84;5057915;28;20227;-92
2021/07/18 00:33:06;;;;;;;9.00;8.20;;;;;;;28.44;51.04;99078.81;5041841;28;20308;-93
2021/07/18 00:35:36;;;;;;;9.03;8.17;;;;;;;28.49;50.94;99087.97;5059063;28;20228;-93
2021/07/18 00:38:04;;;;;;;9.17;8.37;;;;;;;28.63;50.59;99094.69;5041806;28;20224;-94
2021/07/18 00:40:31;;;;;;;9.30;8.40;;;;;;;28.65;50.71;99086.84;5041269;28;20229;-94
2021/07/18 00:42:58;;;;;;;8.73;7.97;;;;;;;28.68;50.26;99086.16;5057976;28;20286;-95
2021/07/18 00:45:24;;;;;;;9.20;8.30;;;;;;;28.69;50.15;99076.75;5041318;28;20231;-93
2021/07/18 00:47:52;;;;;;;8.90;8.20;;;;;;;28.95;49.51;99081.00;5041458;28;20309;-94
2021/07/18 00:50:18;;;;;;;8.90;8.10;;;;;;;28.88;49.78;99087.91;5057510;28;20232;-93
2021/07/18 00:52:45;;;;;;;9.07;8.20;;;;;;;28.85;49.79;99085.88;5041392;28;20314;-92
2021/07/18 00:55:13;;;;;;;8.87;7.97;;;;;;;28.93;49.50;99086.84;5041332;28;20225;-93
2021/07/18 00:57:44;;;;;;;8.20;7.40;;;;;;;28.95;49.52;99095.56;5058057;28;20294;-93
2021/07/18 01:00:11;;;;;;;8.20;7.50;;;;;;;28.91;49.58;99085.63;5057031;28;20657;-93
2021/07/18 01:02:39;;;;;;;7.90;7.20;;;;;;;29.04;48.72;99085.19;5058254;28;20507;-93
2021/07/18 01:05:08;;;;;;;8.50;7.73;;;;;;;29.18;48.48;99087.50;5040881;28;20287;-93
2021/07/18 01:07:35;;;;;;;8.10;7.40;;;;;;;29.11;49.07;99087.31;5058017;28;20261;-92
2021/07/18 01:10:07;;;;;;;8.37;7.57;;;;;;;29.17;48.57;99061.06;5040427;28;20226;-92
2021/07/18 01:12:34;;;;;;;7.97;7.33;;;;;;;29.16;48.71;99079.56;5057718;28;20333;-93
2021/07/18 01:15:02;;;;;;;8.27;7.43;;;;;;;29.14;48.50;99062.59;5073997;28;20316;-93
2021/07/18 01:17:29;;;;;;;8.80;7.50;;;;;;;28.94;48.96;99071.09;5057820;28;20228;-92
2021/07/18 01:19:56;;;;;;;8.27;7.57;;;;;;;28.87;48.84;99066.22;5057518;28;20228;-92
2021/07/18 01:22:23;;;;;;;9.73;7.30;;;;;;;29.01;48.29;99074.88;5057099;28;20232;-93
2021/07/18 01:24:51;;;;;;;7.90;7.20;;;;;;;29.17;48.35;99059.09;5057373;28;20308;-94
2021/07/18 01:27:17;;;;;;;8.03;7.20;;;;;;;29.30;48.16;99057.88;5041104;28;20229;-93
2021/07/18 01:29:45;;;;;;;8.20;7.30;;;;;;;29.08;48.23;99055.72;5073853;28;20228;-92
2021/07/18 01:32:11;;;;;;;8.27;6.57;;;;;;;29.17;48.34;99048.06;5040472;28;20243;-93
2021/07/18 01:34:38;;;;;;;8.00;7.20;;;;;;;29.15;48.28;99049.59;5057326;28;20244;-93
2021/07/18 01:37:05;;;;;;;7.87;7.07;;;;;;;29.11;48.25;99038.50;5057776;28;20231;-93
2021/07/18 01:39:31;;;;;;;8.50;7.70;;;;;;;28.86;48.46;99029.59;5057412;28;20229;-92
2021/07/18 01:41:58;;;;;;;7.73;7.00;;;;;;;29.21;47.90;99034.38;5057318;28;20232;-93
2021/07/18 01:44:26;;;;;;;7.90;7.20;;;;;;;29.20;48.02;99039.09;5040298;28;20226;-93
2021/07/18 01:46:52;;;;;;;7.87;7.17;;;;;;;29.16;48.10;99024.41;5040697;28;20235;-93
2021/07/18 01:49:19;;;;;;;8.07;7.37;;;;;;;29.24;48.05;99019.88;5074143;28;20228;-90
2021/07/18 01:51:46;;;;;;;7.90;7.27;;;;;;;29.14;48.11;99035.00;5040676;28;20236;-92
2021/07/18 01:54:13;;;;;;;8.43;7.60;;;;;;;29.06;48.34;99032.44;5056873;28;20238;-92
2021/07/18 01:56:40;;;;;;;8.60;7.37;;;;;;;29.06;47.96;99029.69;5057301;28;20287;-92
2021/07/18 01:59:08;;;;;;;8.30;7.50;;;;;;;28.98;48.44;99031.44;5040947;28;20236;-92
2021/07/18 02:01:35;;;;;;;7.93;7.10;;;;;;;28.75;48.87;99036.75;5057149;28;20232;-92
2021/07/18 02:04:02;;;;;;;8.13;7.33;;;;;;;28.74;49.07;99032.41;5040559;28;20228;-92
2021/07/18 02:06:30;;;;;;;7.73;6.93;;;;;;;28.81;49.38;99038.13;5040700;28;20666;-93
2021/07/18 02:08:58;;;;;;;9.63;7.53;;;;;;;29.17;48.02;99039.81;5041116;28;20321;-92
2021/07/18 02:11:26;;;;;;;8.37;7.57;;;;;;;29.12;48.15;99036.50;5040577;28;20231;-92
2021/07/18 02:13:55;;;;;;;7.80;6.93;;;;;;;29.15;47.30;99036.63;5041309;28;20224;-92
2021/07/18 02:16:23;;;;;;;7.33;6.73;;;;;;;29.18;47.98;99035.09;5060276;28;20240;-92
2021/07/18 02:18:50;;;;;;;7.93;7.23;;;;;;;29.29;47.40;99028.69;5060699;28;20237;-91
2021/07/18 02:21:21;;;;;;;7.90;7.20;;;;;;;29.28;48.08;99038.13;5044054;28;20257;-93
2021/07/18 02:23:48;;;;;;;7.87;7.10;;;;;;;28.99;48.07;99041.31;5044214;28;20235;-93
2021/07/18 02:26:16;;;;;;;8.00;7.20;;;;;;;29.15;47.89;99038.56;5060423;28;20232;-90
2021/07/18 02:28:43;;;;;;;8.27;7.57;;;;;;;29.35;47.64;99042.25;5077154;28;20650;-92
2021/07/18 02:31:10;;;;;;;9.17;7.50;;;;;;;29.34;47.48;99046.16;5043648;28;20502;-92
2021/07/18 02:33:37;;;;;;;8.00;7.30;;;;;;;29.27;47.29;99035.69;5060662;28;20230;-92
2021/07/18 02:36:04;;;;;;;8.27;7.47;;;;;;;29.61;46.83;99046.00;5043566;28;20219;-92
2021/07/18 02:38:31;;;;;;;7.97;7.13;;;;;;;29.45;47.38;99038.91;5077094;28;20285;-91
2021/07/18 02:40:58;;;;;;;7.77;7.10;;;;;;;29.58;46.65;99043.94;5043077;28;20229;-92
2021/07/18 02:43:26;;;;;;;8.50;7.80;;;;;;;29.54;46.74;99037.56;5043882;28;20228;-92
2021/07/18 02:45:53;;;;;;;8.43;7.63;;;;;;;29.54;46.81;99034.78;5060223;28;20654;-91
2021/07/18 02:48:20;;;;;;;8.33;7.60;;;;;;;29.35;47.22;99026.47;5076337;28;20236;-92
2021/07/18 02:50:47;;;;;;;8.17;7.37;;;;;;;29.16;48.21;99038.19;5076153;28;20235;-92
2021/07/18 02:53:14;;;;;;;8.70;7.90;;;;;;;23.11;64.74;99037.53;5043550;28;20249;-92
2021/07/18 02:55:41;;;;;;;9.10;7.80;;;;;;;21.49;72.42;99027.84;5043540;28;20515;-92
2021/07/18 02:58:08;;;;;;;8.17;7.37;;;;;;;21.14;74.71;99036.78;5059374;28;20289;-92
2021/07/18 03:00:35;;;;;;;9.17;8.27;;;;;;;20.95;76.13;99025.94;5060012;28;20250;-93
2021/07/18 03:03:02;;;;;;;9.27;8.37;;;;;;;20.94;76.78;99030.59;5060048;28;20283;-92
2021/07/18 03:05:29;;;;;;;8.27;7.47;;;;;;;20.96;77.14;99036.53;5043056;28;20238;-90
2021/07/18 03:07:56;;;;;;;8.60;7.90;;;;;;;20.82;77.95;99038.41;5043326;28;20242;-94
2021/07/18 03:10:23;;;;;;;8.30;7.57;;;;;;;20.94;77.48;99036.03;5075713;28;20233;-91
2021/07/18 03:12:50;;;;;;;8.53;7.73;;;;;;;20.89;77.68;99030.69;5043161;28;20227;-91
2021/07/18 03:15:17;;;;;;;7.93;7.23;;;;;;;21.02;77.65;99050.84;5059484;28;20699;-93
2021/07/18 03:17:44;;;;;;;8.43;7.63;;;;;;;21.05;77.43;99053.78;5059716;28;20601;-93
2021/07/18 03:20:13;;;;;;;8.37;7.63;;;;;;;21.05;77.31;99050.22;5059099;28;20678;-91
2021/07/18 03:22:41;;;;;;;8.60;7.80;;;;;;;21.14;77.40;99058.56;5059418;28;20237;-92
2021/07/18 03:25:09;;;;;;;9.57;8.33;;;;;;;21.18;77.30;99059.56;5058752;28;20231;-93
2021/07/18 03:27:36;;;;;;;9.53;8.67;;;;;;;21.23;77.16;99064.94;5059260;28;20283;-93
2021/07/18 03:30:05;;;;;;;9.60;8.67;;;;;;;21.20;76.94;99057.34;5042101;28;20231;-93
2021/07/18 03:32:33;;;;;;;10.27;9.27;;;;;;;21.27;77.24;99064.00;5042765;28;20222;-94
2021/07/18 03:35:01;;;;;;;14.47;13.07;;;;;;;21.25;77.05;99049.06;5042688;28;20315;-93
2021/07/18 03:37:28;;;;;;;12.20;10.20;;;;;;;21.29;76.59;99053.59;5042532;28;20220;-93
2021/07/18 03:39:55;;;;;;;10.87;9.77;;;;;;;21.40;76.46;99059.66;5042087;28;20234;-91
2021/07/18 03:42:22;;;;;;;11.60;10.43;;;;;;;21.41;76.60;99061.28;5058702;28;20225;-93
2021/07/18 03:44:49;;;;;;;14.10;12.63;;;;;;;21.50;76.49;99073.09;5075670;28;20240;-93
2021/07/18 03:47:15;;;;;;;10.70;9.70;;;;;;;21.47;76.53;99055.41;5042516;28;20293;-89
2021/07/18 03:49:42;;;;;;;11.33;10.20;;;;;;;21.59;76.45;99059.53;5059207;28;20988;-90
2021/07/18 03:52:09;;;;;;;16.40;14.67;;;;;;;21.67;76.42;99062.34;5058106;28;20640;-91
2021/07/18 03:54:35;;;;;;;10.50;9.50;;;;;;;21.66;75.73;99058.00;5042149;28;20323;-92
2021/07/18 03:57:02;;;;;;;10.87;9.77;;;;;;;21.69;75.70;99051.97;5042159;28;20235;-94
2021/07/18 03:59:29;;;;;;;10.50;9.50;;;;;;;21.84;75.64;99067.97;5075248;28;20226;-93
2021/07/18 04:01:56;;;;;;;11.50;10.00;;;;;;;21.89;75.91;99065.13;5042030;28;20226;-91
2021/07/18 04:04:24;;;;;;;12.93;11.73;;;;;;;21.93;75.75;99066.16;5042229;28;20527;-90
2021/07/18 04:06:50;;;;;;;14.93;13.53;;;;;;;22.01;75.26;99069.28;5041848;28;20242;-89
2021/07/18 04:09:17;;;;;;;12.60;11.20;;;;;;;22.10;75.00;99078.34;5042268;28;20254;-91
2021/07/18 04:11:44;;;;;;;11.73;10.53;;;;;;;22.08;74.95;99069.63;5058263;28;20234;-91
2021/07/18 04:14:11;;;;;;;13.53;12.13;;;;;;;22.19;74.67;99081.94;5074451;28;20231;-93
2021/07/18 04:16:37;;;;;;;10.77;9.87;;;;;;;22.18;74.96;99083.84;5041731;28;20230;-89
2021/07/18 04:19:04;;;;;;;11.77;10.67;;;;;;;22.20;74.82;99087.09;5058204;28;20226;-89
2021/07/18 04:21:31;;;;;;;14.77;11.27;;;;;;;22.14;74.91;99082.88;5058174;28;20237;-91
2021/07/18 04:23:58;;;;;;;13.65;12.20;;;;;;;22.18;75.40;99086.59;5075039;28;20227;-89
2021/07/18 04:26:25;;;;;;;21.67;19.37;;;;;;;22.24;75.06;99088.09;5057986;28;20536;-89
2021/07/18 04:28:51;;;;;;;17.05;13.02;;;;;;;22.26;74.58;99083.09;5075092;28;20263;-91
2021/07/18 04:31:18;;;;;;;11.15;10.07;;;;;;;22.27;74.68;99095.63;5074783;28;20310;-91
2021/07/18 04:33:45;;;;;;;18.90;15.80;;;;;;;22.34;74.56;99101.50;5075072;28;20516;-90
2021/07/18 04:36:12;;;;;;;16.97;14.87;;;;;;;22.39;74.18;99106.03;5074223;28;20238;-92
2021/07/18 04:38:38;;;;;;;14.52;12.88;;;;;;;22.58;73.83;99112.09;5058358;28;20584;-91
2021/07/18 04:41:05;;;;;;;11.83;10.63;;;;;;;22.59;73.77;99107.44;5058126;28;20326;-91
2021/07/18 04:43:32;;;;;;;11.23;10.13;;;;;;;22.73;73.54;99106.28;5075016;28;20236;-91
2021/07/18 04:45:59;;;;;;;10.88;9.88;;;;;;;22.73;73.23;99103.53;5091049;28;20639;-92
2021/07/18 04:48:26;;;;;;;11.65;9.82;;;;;;;22.73;73.20;99092.63;5041363;28;20301;-91
2021/07/18 04:50:52;;;;;;;13.82;12.43;;;;;;;22.82;72.95;99085.28;5074910;28;20235;-90
2021/07/18 04:53:19;;;;;;;10.80;9.77;;;;;;;22.88;72.54;99083.22;5074930;28;20308;-88
2021/07/18 04:55:46;;;;;;;10.50;9.60;;;;;;;22.98;72.08;99096.63;5058066;28;20235;-90
2021/07/18 04:58:13;;;;;;;11.50;10.27;;;;;;;23.07;71.82;99088.47;5074082;28;20734;-90
2021/07/18 05:00:39;;;;;;;13.27;11.85;;;;;;;23.13;71.55;99093.50;5058264;28;20224;-91
2021/07/18 05:03:06;;;;;;;10.95;9.85;;;;;;;23.14;71.41;99094.31;5057645;28;20235;-90
2021/07/18 05:05:33;;;;;;;9.75;8.75;;;;;;;23.12;71.81;99102.81;5058311;28;20224;-90
2021/07/18 05:08:00;;;;;;;10.82;9.70;;;;;;;23.14;71.41;99099.75;5057784;28;20307;-90
2021/07/18 05:10:28;;;;;;;10.05;9.05;;;;;;;23.22;71.41;99102.53;5041458;28;20228;-91
2021/07/18 05:12:56;;;;;;;10.10;9.27;;;;;;;23.27;71.40;99107.06;5074118;28;20685;-90
2021/07/18 05:15:25;;;;;;;11.10;9.88;;;;;;;23.13;71.44;99090.75;5041295;28;20231;-90
2021/07/18 05:17:54;;;;;;;11.57;10.43;;;;;;;23.36;71.44;99104.34;5057976;28;20221;-90
2021/07/18 05:20:22;;;;;;;11.20;10.10;;;;;;;23.58;70.46;99107.81;5041073;28;20296;-91
2021/07/18 05:22:50;;;;;;;12.15;10.98;;;;;;;23.88;69.68;99113.53;5074460;28;20671;-90
2021/07/18 05:25:17;;;;;;;10.57;9.68;;;;;;;24.03;68.27;99096.63;5057797;28;20221;-90
2021/07/18 05:27:44;;;;;;;10.85;9.75;;;;;;;24.41;67.85;99110.53;5074139;28;20528;-88
2021/07/18 05:30:12;;;;;;;12.45;11.15;;;;;;;24.49;67.24;99102.31;5073766;28;20570;-89
2021/07/18 05:32:39;;;;;;;11.43;10.32;;;;;;;24.54;66.48;99115.81;5041054;28;20537;-90
2021/07/18 05:35:08;;;;;;;12.57;11.35;;;;;;;24.55;67.02;99101.00;5040929;28;20623;-90
2021/07/18 05:37:34;;;;;;;12.00;10.80;;;;;;;24.61;66.55;99103.59;5074197;28;20232;-90
2021/07/18 05:40:06;;;;;;;11.70;10.65;;;;;;;24.68;66.08;99098.44;5073713;28;20278;-90
2021/07/18 05:42:33;;;;;;;12.05;10.27;;;;;;;24.80;65.98;99098.56;5091110;28;20240;-88
2021/07/18 05:45:00;;;;;;;11.75;10.40;;;;;;;25.05;65.55;99103.22;5057670;28;20249;-90
2021/07/18 05:47:28;;;;;;;11.38;10.27;;;;;;;25.11;65.03;99101.88;5090695;28;20239;-89
2021/07/18 05:49:57;;;;;;;11.20;10.05;;;;;;;25.10;64.63;99104.97;5094986;28;20248;-88
2021/07/18 05:52:26;;;;;;;11.23;10.20;;;;;;;25.23;64.01;99102.00;5077317;28;20229;-89
2021/07/18 05:54:53;;;;;;;10.98;9.95;;;;;;;25.16;64.57;99118.16;5094697;28;20237;-89
2021/07/18 05:57:20;;;;;;;10.95;10.05;;;;;;;25.22;63.97;99119.59;5061149;28;20316;-90
2021/07/18 05:59:46;;;;;;;10.70;9.63;;;;;;;24.95;64.74;99112.59;5077611;28;20232;-87
2021/07/18 06:02:15;;;;;;;11.00;9.73;;;;;;;25.17;64.71;99125.25;5077411;28;20286;-90
2021/07/18 06:04:42;;;;;;;11.02;9.68;;;;;;;25.08;64.54;99108.03;5093985;28;20217;-88
2021/07/18 06:07:09;;;;;;;10.65;9.75;;;;;;;25.30;63.94;99115.19;5061001;28;20659;-89
2021/07/18 06:09:37;;;;;;;11.30;10.32;;;;;;;25.37;63.96;99118.25;5061073;28;20225;-89
2021/07/18 06:12:04;;;;;;;10.57;9.57;;;;;;;25.17;64.02;99111.53;5060639;28;20228;-89
2021/07/18 06:14:31;;;;;;;10.77;9.73;;;;;;;25.21;63.99;99114.41;5061049;28;20220;-90
2021/07/18 06:16:58;;;;;;;11.05;9.95;;;;;;;25.11;64.72;99123.81;5061177;28;20221;-87
2021/07/18 06:19:25;;;;;;;11.95;10.40;;;;;;;24.70;65.69;99124.34;5061025;28;20304;-90
2021/07/18 06:21:52;;;;;;;10.35;9.48;;;;;;;24.53;66.01;99107.94;5060656;28;20229;-90
2021/07/18 06:24:18;;;;;;;10.80;9.75;;;;;;;24.48;66.56;99125.34;5060387;28;20318;-90
2021/07/18 06:26:46;;;;;;;11.32;10.15;;;;;;;24.43;66.97;99130.19;5060951;28;20232;-88
2021/07/18 06:29:13;;;;;;;10.27;9.30;;;;;;;24.41;66.95;99132.41;5077343;28;20583;-90
2021/07/18 06:31:40;;;;;;;10.48;9.57;;;;;;;24.42;67.05;99134.03;5060592;28;20239;-90
2021/07/18 06:34:07;;;;;;;10.73;9.63;;;;;;;24.47;66.99;99136.63;5093076;28;20233;-89
2021/07/18 06:36:33;;;;;;;10.10;9.10;;;;;;;24.35;67.15;99129.06;5094312;28;20316;-90
2021/07/18 06:39:01;;;;;;;10.68;9.60;;;;;;;24.36;66.95;99129.84;5060273;28;20593;-89
2021/07/18 06:41:28;;;;;;;11.50;10.23;;;;;;;24.51;66.71;99132.09;5060620;28;20229;-89
2021/07/18 06:43:54;;;;;;;11.40;10.30;;;;;;;24.71;65.97;99136.13;5060063;28;20303;-88
2021/07/18 06:46:31;;;;;;;11.20;10.13;;;;;;;25.08;65.27;99131.88;5060905;28;20308;-89
2021/07/18 06:48:59;;;;;;;11.30;10.27;;;;;;;25.28;64.22;99145.69;5060130;28;20250;-90
2021/07/18 06:51:26;;;;;;;10.88;9.90;;;;;;;25.75;63.65;99137.44;5043203;28;20287;-89
2021/07/18 06:53:53;;;;;;;10.55;9.55;;;;;;;26.03;62.67;99126.78;5093477;28;20232;-90
2021/07/18 06:56:29;;;;;;;11.70;9.85;;;;;;;26.09;61.74;99136.41;5076654;28;20227;-89
2021/07/18 06:58:56;;;;;;;11.27;10.18;;;;;;;25.97;62.09;99134.41;5059838;28;20307;-89
2021/07/18 07:01:23;;;;;;;11.70;9.88;;;;;;;26.02;61.65;99128.72;5059329;28;20232;-90
2021/07/18 07:03:50;;;;;;;11.35;10.18;;;;;;;26.38;60.23;99121.84;5043522;28;20590;-89
2021/07/18 07:06:17;;;;;;;10.68;9.65;;;;;;;26.77;58.85;99128.78;5042864;28;20225;-89
2021/07/18 07:08:44;;;;;;;12.27;10.00;;;;;;;27.34;57.85;99135.09;5059900;28;20223;-89
2021/07/18 07:11:10;;;;;;;10.80;9.73;;;;;;;27.25;58.11;99120.66;5076313;28;20277;-90
2021/07/18 07:13:37;;;;;;;11.40;10.35;;;;;;;27.69;57.10;99120.94;5059809;28;20248;-89
2021/07/18 07:16:05;;;;;;;11.00;9.88;;;;;;;27.78;57.11;99127.13;5092418;28;20229;-89
2021/07/18 07:18:32;;;;;;;10.60;9.60;;;;;;;27.98;55.52;99131.72;5076163;28;20278;-88
2021/07/18 07:20:58;;;;;;;10.95;9.82;;;;;;;28.36;55.39;99140.38;5059287;28;20232;-88
2021/07/18 07:23:25;;;;;;;10.60;9.70;;;;;;;28.09;55.32;99140.31;5057512;28;20237;-89
2021/07/18 07:25:52;;;;;;;10.75;9.57;;;;;;;28.42;55.48;99146.44;5043682;28;20310;-88
2021/07/18 07:28:21;;;;;;;11.10;10.07;;;;;;;28.26;55.04;99140.88;5058622;28;20257;-88
2021/07/18 07:30:48;;;;;;;11.48;10.30;;;;;;;27.99;55.47;99141.56;5059152;28;20538;-88
2021/07/18 07:33:15;;;;;;;10.75;9.75;;;;;;;28.24;55.05;99145.91;5075573;28;20310;-88
2021/07/18 07:35:42;;;;;;;10.75;9.65;;;;;;;27.63;56.37;99149.84;5042898;28;20232;-88
2021/07/18 07:38:09;;;;;;;10.60;9.70;;;;;;;28.10;55.53;99145.44;5058418;28;20239;-87
2021/07/18 07:40:36;;;;;;;10.77;9.68;;;;;;;28.49;54.64;99154.91;5058524;28;20223;-88
2021/07/18 07:43:03;;;;;;;11.43;10.15;;;;;;;28.70;54.14;99140.91;5042327;28;20234;-87
2021/07/18 07:45:30;;;;;;;10.80;9.90;;;;;;;28.42;54.29;99149.97;5042099;28;20582;-88
2021/07/18 07:47:56;;;;;;;10.40;9.48;;;;;;;28.12;54.75;99143.19;5042344;28;20314;-88
2021/07/18 07:50:23;;;;;;;11.43;10.43;;;;;;;27.97;55.42;99141.91;5041545;28;20228;-88
2021/07/18 07:52:50;;;;;;;12.23;10.05;;;;;;;28.28;55.28;99149.56;5041847;28;20314;-87
2021/07/18 07:55:18;;;;;;;11.15;10.05;;;;;;;28.27;54.37;99145.22;5058493;28;20225;-88
2021/07/18 07:57:44;;;;;;;10.80;9.82;;;;;;;28.42;54.62;99146.44;5058385;28;20229;-88
2021/07/18 08:00:14;;;;;;;11.25;10.25;;;;;;;28.09;55.14;99148.56;5041499;28;20256;-88
2021/07/18 08:02:42;;;;;;;11.35;10.18;;;;;;;28.18;55.11;99147.31;5075272;28;20238;-87
2021/07/18 08:05:09;;;;;;;10.95;10.05;;;;;;;29.08;53.17;99141.22;5042112;28;20220;-88
2021/07/18 08:07:37;;;;;;;10.57;9.57;;;;;;;28.97;53.06;99148.44;5058335;28;20238;-87
2021/07/18 08:10:11;;;;;;;11.38;10.40;;;;;;;29.34;51.89;99159.28;5074176;28;20647;-88
2021/07/18 08:12:39;;;;;;;10.50;9.60;;;;;;;29.22;51.67;99149.06;5058372;28;20627;-88
2021/07/18 08:15:08;;;;;;;10.90;9.98;;;;;;;28.77;52.93;99143.94;5058221;28;20263;-88
2021/07/18 08:17:36;;;;;;;11.43;10.20;;;;;;;28.67;52.78;99163.69;5041727;28;20234;-88
2021/07/18 08:20:08;;;;;;;11.15;10.15;;;;;;;28.66;53.30;99154.63;5057386;28;20270;-88
2021/07/18 08:22:34;;;;;;;11.32;10.15;;;;;;;29.02;52.35;99161.16;5058129;28;20239;-87
2021/07/18 08:25:02;;;;;;;11.68;10.48;;;;;;;29.34;52.02;99160.06;5074079;28;20665;-88
2021/07/18 08:27:33;;;;;;;11.15;10.15;;;;;;;29.06;52.36;99168.38;5074697;28;20268;-87
2021/07/18 08:30:00;;;;;;;11.80;10.00;;;;;;;29.46;51.47;99170.22;5057483;28;20252;-87
2021/07/18 08:32:27;;;;;;;11.15;10.25;;;;;;;29.46;50.82;99161.94;5032213;28;20252;-87
2021/07/18 08:34:54;;;;;;;10.82;9.85;;;;;;;29.77;50.21;99154.44;5054072;28;20678;-87
2021/07/18 08:37:21;;;;;;;11.13;10.07;;;;;;;29.07;52.64;99153.41;5055761;28;20306;-88
2021/07/18 08:39:48;;;;;;;11.52;10.32;;;;;;;29.72;50.35;99156.69;5074178;28;20239;-87
2021/07/18 08:42:15;;;;;;;10.93;10.02;;;;;;;29.56;50.88;99140.13;5040844;28;20228;-87
2021/07/18 08:44:43;;;;;;;10.82;9.82;;;;;;;29.96;51.19;99162.00;5074116;28;20236;-86
2021/07/18 08:47:10;;;;;;;11.30;10.40;;;;;;;29.95;50.18;99160.44;5056131;28;20279;-87
2021/07/18 08:49:38;;;;;;;11.05;10.05;;;;;;;29.79;50.46;99156.84;5057094;28;20241;-87
2021/07/18 08:52:06;;;;;;;11.82;10.60;;;;;;;30.00;49.97;99165.66;5073441;28;20232;-87
2021/07/18 08:54:33;;;;;;;11.52;10.43;;;;;;;30.17;49.73;99161.69;5041066;28;20224;-88
2021/07/18 08:57:00;;;;;;;11.45;10.48;;;;;;;29.44;51.07;99165.06;5057314;28;20233;-87
2021/07/18 08:59:28;;;;;;;11.27;10.27;;;;;;;29.51;51.34;99169.94;5057738;28;20225;-87
2021/07/18 09:01:54;;;;;;;11.80;10.40;;;;;;;29.27;51.11;99176.41;5056804;28;20227;-87
2021/07/18 09:04:22;;;;;;;11.48;10.35;;;;;;;29.54;51.33;99166.47;5056097;28;20225;-87
2021/07/18 09:06:50;;;;;;;12.68;10.32;;;;;;;29.59;51.30;99174.47;5057045;28;20228;-87
2021/07/18 09:09:22;;;;;;;11.25;10.32;;;;;;;29.52;51.45;99153.03;5041071;28;20328;-88
2021/07/18 09:11:59;;;;;;;11.32;10.20;;;;;;;29.19;51.81;99160.81;5057407;28;20226;-87
2021/07/18 09:14:32;;;;;;;11.32;10.23;;;;;;;29.47;51.34;99139.50;5057271;28;20659;-87
2021/07/18 09:16:59;;;;;;;11.20;10.20;;;;;;;29.15;51.89;99143.38;5056946;28;20594;-87
2021/07/18 09:19:27;;;;;;;11.18;10.18;;;;;;;29.22;52.10;99155.38;5041039;28;20313;-87
2021/07/18 09:21:57;;;;;;;11.60;10.70;;;;;;;29.28;52.25;99155.94;5073612;28;20233;-88
2021/07/18 09:24:26;;;;;;;11.70;10.52;;;;;;;29.76;51.23;99141.00;5076959;28;20315;-87
2021/07/18 09:27:06;;;;;;;10.23;9.25;;;;;;;30.23;49.46;99151.97;5044752;28;20694;-87
2021/07/18 09:29:41;;;;;;;10.70;9.60;;;;;;;30.82;49.00;99143.34;5077607;28;20229;-88
2021/07/18 09:32:30;;;;;;;10.68;9.63;;;;;;;30.80;48.49;99145.69;5060640;28;20298;-86
2021/07/18 09:34:57;;;;;;;11.10;10.10;;;;;;;30.13;49.32;99149.78;5059221;28;20224;-88
2021/07/18 09:37:47;;;;;;;11.82;10.35;;;;;;;29.81;50.41;99137.97;5058922;28;20759;-87
2021/07/18 09:40:24;;;;;;;11.13;10.13;;;;;;;30.47;50.21;99137.91;5060052;28;20307;-88
2021/07/18 09:42:56;;;;;;;11.52;10.35;;;;;;;31.02;47.55;99139.44;5077371;28;20315;-86
2021/07/18 09:45:29;;;;;;;11.40;10.18;;;;;;;31.20;47.74;99136.19;5044406;28;20245;-88
2021/07/18 09:48:01;;;;;;;11.13;10.13;;;;;;;31.65;46.79;99133.41;5060380;28;20357;-88
2021/07/18 09:50:30;;;;;;;10.27;9.27;;;;;;;30.78;47.61;99127.88;5043534;28;20223;-87
2021/07/18 09:53:15;;;;;;;10.60;9.38;;;;;;;30.72;48.05;99127.34;5059484;28;20232;-83
2021/07/18 09:55:55;;;;;;;11.15;10.05;;;;;;;31.34;47.10;99128.13;5075431;28;20219;-83
2021/07/18 09:58:24;;;;;;;11.23;10.32;;;;;;;31.11;47.45;99130.91;5055736;28;20307;-83
2021/07/18 10:00:51;;;;;;;10.85;9.77;;;;;;;30.85;47.88;99128.78;5058274;28;21055;-83
2021/07/18 10:03:22;;;;;;;10.60;9.60;;;;;;;31.42;46.82;99127.88;5074115;28;20270;-83
2021/07/18 10:06:08;;;;;;;10.63;9.55;;;;;;;31.19;47.73;99140.91;5074991;28;20213;-81
2021/07/18 10:08:37;;;;;;;10.80;9.82;;;;;;;31.39;47.19;99123.09;5055501;28;20239;-82
2021/07/18 10:11:06;;;;;;;10.98;9.95;;;;;;;31.65;46.56;99122.34;5068306;28;20236;-83
2021/07/18 10:13:34;;;;;;;10.80;9.88;;;;;;;32.35;45.39;99130.09;5075343;28;20316;-83
2021/07/18 10:16:01;;;;;;;11.98;10.80;;;;;;;31.82;46.54;99113.50;5058890;28;20302;-83
2021/07/18 10:18:29;;;;;;;11.63;10.55;;;;;;;32.05;45.57;99126.50;5075376;28;20240;-83
2021/07/18 10:20:58;;;;;;;11.50;10.40;;;;;;;32.55;44.19;99122.44;5075379;28;20619;-83
2021/07/18 10:23:26;;;;;;;11.25;10.15;;;;;;;32.25;44.98;99112.16;5075638;28;20232;-83
2021/07/18 10:26:17;;;;;;;12.00;10.90;;;;;;;31.94;45.64;99108.91;5075235;28;20305;-83
2021/07/18 10:28:48;;;;;;;11.00;10.10;;;;;;;31.91;45.53;99110.47;5058558;28;20282;-82
2021/07/18 10:31:31;;;;;;;11.43;10.35;;;;;;;31.82;45.85;99115.50;5074884;28;20233;-82
2021/07/18 10:34:00;;;;;;;11.55;10.60;;;;;;;31.87;46.54;99101.28;5074232;28;20639;-82
2021/07/18 10:36:28;;;;;;;10.75;9.75;;;;;;;31.81;46.50;99103.63;5057135;28;20675;-82
2021/07/18 10:38:55;;;;;;;10.82;9.65;;;;;;;31.54;47.14;99112.25;5041472;28;20225;-82
2021/07/18 10:41:48;;;;;;;11.57;10.57;;;;;;;31.03;47.44;99109.78;5041265;28;20340;-83
2021/07/18 10:44:16;;;;;;;11.32;10.20;;;;;;;31.19;46.97;99106.91;5054432;28;20225;-83
2021/07/18 10:46:46;;;;;;;11.20;10.30;;;;;;;31.23;47.91;99105.00;5074432;28;20244;-83
2021/07/18 10:49:15;;;;;;;11.27;10.32;;;;;;;32.10;46.24;99106.81;5074518;28;20225;-83
2021/07/18 10:51:52;;;;;;;11.90;10.85;;;;;;;32.36;44.88;99094.88;5055727;28;20500;-83
2021/07/18 10:54:20;;;;;;;10.70;9.80;;;;;;;31.99;45.68;99105.84;5074127;28;20316;-82
2021/07/18 10:56:52;;;;;;;10.73;9.73;;;;;;;31.84;46.87;99090.97;5073999;28;20666;-82
2021/07/18 10:59:36;;;;;;;11.05;10.02;;;;;;;31.32;47.38;99100.00;5057670;28;20233;-82
2021/07/18 11:02:10;;;;;;;11.65;10.40;;;;;;;30.87;47.60;99092.47;5056864;28;20232;-81
2021/07/18 11:04:50;;;;;;;10.77;9.88;;;;;;;31.15;48.27;99100.53;5074242;28;20575;-81
2021/07/18 11:07:21;;;;;;;10.93;10.02;;;;;;;30.90;48.46;99098.06;5074117;28;20232;-82
2021/07/18 11:10:11;;;;;;;10.93;9.93;;;;;;;31.41;48.46;99100.56;5074354;28;20235;-82
2021/07/18 11:12:43;;;;;;;10.85;9.80;;;;;;;31.32;48.27;99109.13;5056753;28;20235;-83
2021/07/18 11:15:16;;;;;;;9.98;9.05;;;;;;;31.55;47.86;99111.88;5074222;28;20232;-83
2021/07/18 11:18:02;;;;;;;9.95;8.93;;;;;;;31.48;47.92;99112.56;5073493;28;20232;-83
2021/07/18 11:20:42;;;;;;;10.05;9.05;;;;;;;31.61;47.29;99101.31;5056238;28;20233;-83
2021/07/18 11:23:12;;;;;;;11.80;9.20;;;;;;;31.51;47.59;99099.94;5074962;28;20531;-83
2021/07/18 11:25:41;;;;;;;10.02;9.20;;;;;;;31.22;47.45;99084.03;5041245;28;20232;-83
2021/07/18 11:28:36;;;;;;;9.93;9.13;;;;;;;31.67;47.66;99102.59;5056968;28;20700;-83
2021/07/18 11:31:12;;;;;;;10.55;9.23;;;;;;;31.77;46.63;99096.44;5074754;28;20655;-83